Time;durP1;ratioP1;P1;durP2;ratioP2;P2;SDS_P1;SDS_P2;PMS_P1;PMS_P2;Temp;Humidity;BMP_temperature;BMP_pressure;BME280_temperature;BME280_humidity;BME280_pressure;Samples;Min_cycle;Max_cycle;Signal;HPM_P1;HPM_P2
2021/10/29 00:00:58;;;;;;;8.30;4.95;;;;;;;7.73;50.06;94661.44;4966863;28;20022;-75
2021/10/29 00:03:24;;;;;;;9.55;5.45;;;;;;;7.56;50.21;94630.78;4961733;28;20490;-74
2021/10/29 00:05:49;;;;;;;7.32;4.80;;;;;;;7.78;50.12;94650.81;4968740;28;20057;-74
2021/10/29 00:08:15;;;;;;;9.52;5.45;;;;;;;7.83;49.61;94643.59;4964180;28;20144;-74
2021/10/29 00:10:41;;;;;;;8.25;5.57;;;;;;;7.78;49.85;94622.44;4966065;28;20038;-74
2021/10/29 00:13:06;;;;;;;9.15;5.35;;;;;;;7.90;49.86;94619.47;4965601;28;20101;-74
2021/10/29 00:15:33;;;;;;;8.88;5.68;;;;;;;7.99;49.64;94625.75;4962765;28;20050;-75
2021/10/29 00:17:58;;;;;;;6.50;4.80;;;;;;;7.96;49.26;94605.91;4961073;28;20042;-74
2021/10/29 00:20:24;;;;;;;29.48;9.43;;;;;;;7.97;49.23;94588.94;4967833;28;20039;-74
2021/10/29 00:22:49;;;;;;;21.55;9.43;;;;;;;8.16;48.97;94612.91;4969586;28;20497;-74
2021/10/29 00:25:16;;;;;;;21.67;8.57;;;;;;;8.35;48.65;94632.34;4972177;28;20042;-73
2021/10/29 00:27:41;;;;;;;31.58;11.30;;;;;;;8.00;49.05;94624.69;4966125;28;20420;-74
2021/10/29 00:30:07;;;;;;;14.70;6.43;;;;;;;8.07;48.90;94627.81;4967011;28;20486;-74
2021/10/29 00:32:33;;;;;;;11.52;6.80;;;;;;;7.41;49.62;94583.22;4969908;28;20174;-75
2021/10/29 00:34:58;;;;;;;8.25;5.28;;;;;;;7.73;49.69;94634.97;4967749;28;20042;-74
2021/10/29 00:37:24;;;;;;;7.05;4.72;;;;;;;7.49;50.38;94616.25;4962366;28;20070;-75
2021/10/29 00:39:50;;;;;;;7.18;5.05;;;;;;;7.57;50.25;94637.66;4969463;28;20030;-74
2021/10/29 00:42:15;;;;;;;7.35;4.13;;;;;;;7.56;50.60;94630.00;4959801;28;20821;-74
2021/10/29 00:44:40;;;;;;;6.38;4.55;;;;;;;7.66;50.64;94638.66;4965836;28;20061;-74
2021/10/29 00:47:06;;;;;;;7.55;5.00;;;;;;;7.53;50.46;94631.31;4965439;28;20031;-74
2021/10/29 00:49:32;;;;;;;6.60;4.28;;;;;;;7.15;51.37;94602.94;4960495;28;20034;-74
2021/10/29 00:51:57;;;;;;;7.13;4.35;;;;;;;7.05;51.71;94630.22;4966873;28;20069;-74
2021/10/29 00:54:23;;;;;;;6.80;4.70;;;;;;;6.94;51.34;94590.88;4965971;28;20740;-74
2021/10/29 00:56:50;;;;;;;8.88;5.32;;;;;;;7.17;51.28;94624.63;4967031;28;20461;-74
2021/10/29 00:59:18;;;;;;;8.15;5.28;;;;;;;7.31;51.04;94617.69;4968173;28;20084;-74
2021/10/29 01:01:47;;;;;;;9.43;4.97;;;;;;;7.29;50.90;94620.59;4963983;28;20497;-73
2021/10/29 01:04:14;;;;;;;10.00;5.13;;;;;;;6.88;51.86;94594.59;4967830;28;20038;-73
2021/10/29 01:06:39;;;;;;;8.20;5.60;;;;;;;7.01;51.84;94617.81;4970004;28;20508;-74
2021/10/29 01:09:05;;;;;;;10.38;5.32;;;;;;;6.99;51.92;94590.88;4962093;28;20046;-74
2021/10/29 01:11:31;;;;;;;6.68;5.60;;;;;;;6.97;51.85;94572.63;4967216;28;20096;-74
2021/10/29 01:13:56;;;;;;;8.82;5.10;;;;;;;7.14;51.71;94580.22;4970927;28;20054;-73
2021/10/29 01:16:23;;;;;;;10.52;5.43;;;;;;;7.23;51.70;94581.22;4965587;28;20571;-75
2021/10/29 01:18:48;;;;;;;10.82;6.38;;;;;;;7.36;51.59;94590.41;4969736;28;20037;-74
2021/10/29 01:21:15;;;;;;;9.18;5.82;;;;;;;7.47;51.37;94592.72;4963890;28;20015;-73
2021/10/29 01:23:41;;;;;;;10.65;6.28;;;;;;;7.42;51.04;94563.66;4964675;28;20039;-73
2021/10/29 01:26:09;;;;;;;6.43;4.85;;;;;;;7.58;50.80;94586.28;4968058;28;20564;-74
2021/10/29 01:28:34;;;;;;;7.30;5.25;;;;;;;7.66;50.67;94588.38;4966102;28;20161;-74
2021/10/29 01:31:01;;;;;;;8.13;4.72;;;;;;;7.60;50.69;94584.16;4968617;28;20508;-74
2021/10/29 01:33:28;;;;;;;6.72;4.60;;;;;;;7.73;50.36;94583.56;4968029;28;20428;-74
2021/10/29 01:35:54;;;;;;;8.70;6.05;;;;;;;7.60;50.43;94560.34;4969018;28;20034;-74
2021/10/29 01:38:20;;;;;;;8.05;4.88;;;;;;;7.44;50.49;94537.69;4966836;28;20049;-74
2021/10/29 01:40:45;;;;;;;9.68;4.72;;;;;;;7.59;50.24;94558.75;4970573;28;20030;-75
2021/10/29 01:43:11;;;;;;;7.93;5.07;;;;;;;7.61;50.55;94579.66;4966614;28;20057;-74
2021/10/29 01:45:36;;;;;;;10.18;4.25;;;;;;;7.62;50.51;94592.63;4966880;28;20023;-74
2021/10/29 01:48:02;;;;;;;7.97;4.82;;;;;;;7.77;49.75;94588.31;4964281;28;20043;-75
2021/10/29 01:50:27;;;;;;;8.15;5.15;;;;;;;7.75;49.92;94585.94;4964852;28;20048;-74
2021/10/29 01:52:54;;;;;;;5.88;4.40;;;;;;;7.79;49.41;94591.47;4975458;28;20474;-74
2021/10/29 01:55:19;;;;;;;8.32;5.25;;;;;;;7.62;49.56;94587.34;4962432;28;20042;-74
2021/10/29 01:57:45;;;;;;;7.97;4.95;;;;;;;7.30;50.90;94594.94;4966359;28;20041;-74
2021/10/29 02:00:12;;;;;;;9.68;5.10;;;;;;;7.27;51.23;94595.50;4965270;28;20028;-74
2021/10/29 02:02:40;;;;;;;10.07;5.43;;;;;;;7.43;50.79;94609.44;4965114;28;20047;-74
2021/10/29 02:05:07;;;;;;;7.43;4.78;;;;;;;7.37;50.79;94606.03;4965131;28;20157;-74
2021/10/29 02:07:32;;;;;;;9.65;5.68;;;;;;;7.22;50.84;94587.56;4963435;28;20046;-74
2021/10/29 02:09:58;;;;;;;10.82;5.20;;;;;;;7.16;50.95;94583.38;4974436;28;20026;-75
2021/10/29 02:12:23;;;;;;;6.57;4.85;;;;;;;7.24;51.52;94599.44;4965937;28;20239;-74
2021/10/29 02:14:49;;;;;;;8.35;5.50;;;;;;;7.33;51.22;94594.41;4968209;28;20050;-75
2021/10/29 02:17:14;;;;;;;7.85;4.72;;;;;;;7.24;51.10;94596.00;4963986;28;20546;-74
2021/10/29 02:19:39;;;;;;;9.43;6.60;;;;;;;6.98;51.72;94597.22;4966362;28;20081;-74
2021/10/29 02:22:05;;;;;;;7.05;4.93;;;;;;;6.99;52.13;94589.00;4967345;28;20097;-75
2021/10/29 02:24:31;;;;;;;8.13;5.25;;;;;;;6.88;52.25;94570.81;4966689;28;20018;-74
2021/10/29 02:26:57;;;;;;;6.13;4.93;;;;;;;6.97;52.76;94579.75;4968161;28;20038;-74
2021/10/29 02:29:22;;;;;;;7.45;5.35;;;;;;;6.90;52.49;94576.63;4964372;28;20484;-74
2021/10/29 02:31:48;;;;;;;10.45;5.47;;;;;;;6.93;52.47;94578.72;4972098;28;20050;-74
2021/10/29 02:34:13;;;;;;;9.10;6.18;;;;;;;6.78;52.28;94553.13;4967269;28;20053;-74
2021/10/29 02:36:38;;;;;;;5.45;4.20;;;;;;;6.91;52.27;94551.75;4963458;28;20600;-74
2021/10/29 02:39:04;;;;;;;9.02;5.53;;;;;;;7.07;52.18;94575.22;4966573;28;20505;-75
2021/10/29 02:41:30;;;;;;;8.93;4.90;;;;;;;7.20;51.08;94574.59;4967868;28;20630;-74
2021/10/29 02:43:56;;;;;;;11.73;5.88;;;;;;;7.18;51.24;94576.75;4962494;28;20042;-74
2021/10/29 02:46:21;;;;;;;9.30;5.53;;;;;;;7.14;51.11;94574.94;4978612;28;20064;-74
2021/10/29 02:48:47;;;;;;;11.70;5.38;;;;;;;6.78;51.55;94546.00;4968434;28;20034;-74
2021/10/29 02:51:12;;;;;;;34.95;14.70;;;;;;;6.94;52.25;94562.59;4965867;28;20031;-74
2021/10/29 02:53:38;;;;;;;18.65;8.82;;;;;;;6.80;52.98;94554.44;4964710;28;20473;-73
2021/10/29 02:56:07;;;;;;;11.48;6.70;;;;;;;6.36;54.06;94579.97;4965756;28;20501;-74
2021/10/29 02:58:33;;;;;;;9.02;6.15;;;;;;;6.53;53.63;94582.28;4965601;28;20039;-74
2021/10/29 03:00:59;;;;;;;9.77;5.53;;;;;;;6.52;53.18;94589.44;4964685;28;20444;-75
2021/10/29 03:03:26;;;;;;;8.70;6.13;;;;;;;6.43;53.13;94570.69;4963426;28;20310;-74
2021/10/29 03:05:52;;;;;;;9.15;5.80;;;;;;;6.60;52.44;94569.59;4981072;28;20162;-74
2021/10/29 03:08:17;;;;;;;9.32;5.65;;;;;;;6.41;53.49;94595.78;4965613;28;20050;-74
2021/10/29 03:10:43;;;;;;;8.07;5.30;;;;;;;6.29;53.94;94598.72;4962885;28;20043;-74
2021/10/29 03:13:09;;;;;;;9.35;5.30;;;;;;;6.40;53.12;94596.88;4967007;28;20101;-74
2021/10/29 03:15:35;;;;;;;6.65;4.90;;;;;;;6.63;52.63;94595.47;4964448;28;20489;-73
2021/10/29 03:18:01;;;;;;;10.45;6.32;;;;;;;6.51;52.60;94589.69;4963423;28;20066;-75
2021/10/29 03:20:26;;;;;;;8.25;6.18;;;;;;;6.23;52.83;94586.59;4964602;28;20039;-73
2021/10/29 03:22:52;;;;;;;8.20;5.40;;;;;;;6.33;52.93;94601.63;4968700;28;20509;-73
2021/10/29 03:25:17;;;;;;;11.10;6.28;;;;;;;6.39;53.23;94606.66;4961968;28;20537;-74
2021/10/29 03:27:43;;;;;;;12.48;7.70;;;;;;;6.38;53.41;94573.34;4962182;28;20027;-73
2021/10/29 03:30:09;;;;;;;13.90;7.82;;;;;;;6.24;53.78;94582.88;4965565;28;20034;-74
2021/10/29 03:32:35;;;;;;;13.75;6.93;;;;;;;6.55;52.92;94596.84;4966769;28;20115;-73
2021/10/29 03:35:01;;;;;;;15.60;6.95;;;;;;;6.38;53.52;94598.97;4965558;28;20038;-74
2021/10/29 03:42:43;;;;;;;8.15;5.03;;;;;;;6.50;52.30;94598.69;4961308;28;20528;-74
2021/10/29 03:45:12;;;;;;;9.05;6.10;;;;;;;6.53;52.39;94590.22;4965878;28;20042;-76
2021/10/29 03:47:48;;;;;;;14.07;6.97;;;;;;;6.31;53.17;94580.75;4961809;28;20678;-75
2021/10/29 03:50:29;;;;;;;13.63;6.10;;;;;;;6.18;53.58;94578.66;4962446;28;20042;-76
2021/10/29 03:53:08;;;;;;;13.68;6.70;;;;;;;6.48;53.28;94583.09;4962698;28;20458;-76
2021/10/29 03:55:40;;;;;;;9.73;5.88;;;;;;;6.35;53.20;94587.09;4963709;28;20570;-77
2021/10/29 03:58:07;;;;;;;7.97;6.18;;;;;;;5.51;54.69;94573.63;4964043;28;20493;-75
2021/10/29 04:00:33;;;;;;;11.38;6.78;;;;;;;5.96;54.24;94591.34;4966145;28;20037;-77
2021/10/29 04:03:01;;;;;;;9.60;6.03;;;;;;;6.15;52.85;94594.22;4966959;28;20046;-77
2021/10/29 04:05:30;;;;;;;10.77;6.07;;;;;;;5.52;54.90;94596.34;4963863;28;20077;-75
2021/10/29 04:07:56;;;;;;;9.75;5.60;;;;;;;5.86;53.92;94591.34;4967487;28;20531;-75
2021/10/29 04:10:27;;;;;;;8.60;6.03;;;;;;;5.20;55.99;94604.44;4994033;28;20039;-75
2021/10/29 04:13:04;;;;;;;10.90;5.88;;;;;;;5.44;55.25;94596.84;4964510;28;20042;-75
2021/10/29 04:15:29;;;;;;;18.80;8.32;;;;;;;4.92;57.14;94608.31;4961939;28;20062;-75
2021/10/29 04:17:57;;;;;;;15.07;8.80;;;;;;;4.24;59.96;94591.63;4964633;28;20138;-75
2021/10/29 04:20:23;;;;;;;11.50;7.40;;;;;;;4.69;59.45;94600.84;4969413;28;20046;-74
2021/10/29 04:22:49;;;;;;;9.93;6.88;;;;;;;4.78;58.24;94569.50;4970260;28;20038;-75
2021/10/29 04:25:14;;;;;;;14.23;7.00;;;;;;;5.08;58.12;94599.41;4965321;28;20432;-75
2021/10/29 04:27:54;;;;;;;12.13;6.80;;;;;;;5.23;57.88;94596.03;4969316;28;20050;-75
2021/10/29 04:30:22;;;;;;;13.57;7.60;;;;;;;5.20;57.34;94556.97;4967168;28;20540;-75
2021/10/29 04:32:47;;;;;;;12.25;7.22;;;;;;;5.45;56.42;94564.13;4966952;28;20126;-75
2021/10/29 04:35:13;;;;;;;10.60;6.72;;;;;;;5.63;56.46;94576.81;4971812;28;20689;-75
2021/10/29 04:37:41;;;;;;;14.32;8.10;;;;;;;5.45;56.64;94574.69;4966767;28;20443;-75
2021/10/29 04:40:08;;;;;;;15.93;7.57;;;;;;;5.64;56.20;94585.50;4965714;28;20034;-75
2021/10/29 04:42:36;;;;;;;15.25;8.15;;;;;;;5.58;55.76;94558.31;4967749;28;20018;-74
2021/10/29 04:45:05;;;;;;;14.90;8.20;;;;;;;5.73;55.72;94576.81;4965096;28;20039;-74
2021/10/29 04:47:31;;;;;;;14.02;7.10;;;;;;;5.89;55.02;94581.03;4969813;28;20030;-73
2021/10/29 04:49:56;;;;;;;11.50;7.28;;;;;;;5.92;54.35;94588.41;4965925;28;20104;-74
2021/10/29 04:52:21;;;;;;;13.25;7.10;;;;;;;6.05;53.74;94570.47;4965087;28;20437;-74
2021/10/29 04:54:47;;;;;;;9.50;6.95;;;;;;;6.15;53.31;94567.81;4968990;28;20026;-75
2021/10/29 04:57:12;;;;;;;12.43;7.55;;;;;;;6.06;53.42;94564.94;4970605;28;20030;-74
2021/10/29 04:59:37;;;;;;;12.70;7.18;;;;;;;6.05;54.14;94573.13;4968005;28;20044;-74
2021/10/29 05:02:05;;;;;;;12.73;8.75;;;;;;;6.09;54.22;94577.59;4937268;28;21091;-76
2021/10/29 05:04:30;;;;;;;14.93;9.18;;;;;;;6.08;54.36;94588.41;4948613;28;20544;-74
2021/10/29 05:06:56;;;;;;;9.55;6.57;;;;;;;6.12;53.82;94568.34;4946349;28;20026;-74
2021/10/29 05:09:24;;;;;;;11.75;7.35;;;;;;;6.22;53.68;94582.34;4940277;28;21159;-76
2021/10/29 05:11:49;;;;;;;14.45;7.18;;;;;;;6.22;53.33;94592.13;4944939;28;20034;-75
2021/10/29 05:14:15;;;;;;;12.80;8.60;;;;;;;6.19;53.33;94600.59;4945141;28;20045;-74
2021/10/29 05:16:40;;;;;;;11.30;7.38;;;;;;;6.21;53.65;94595.84;4942780;28;20063;-74
2021/10/29 05:19:05;;;;;;;12.90;7.38;;;;;;;6.11;53.71;94588.69;4936999;28;20534;-75
2021/10/29 05:21:31;;;;;;;11.80;7.85;;;;;;;6.21;53.29;94582.63;4945760;28;20105;-74
2021/10/29 05:23:57;;;;;;;11.27;7.30;;;;;;;6.21;53.30;94593.22;4963253;28;20034;-74
2021/10/29 05:26:22;;;;;;;13.90;7.70;;;;;;;6.29;53.31;94592.66;4964127;28;20038;-74
2021/10/29 05:28:48;;;;;;;13.40;7.88;;;;;;;6.26;53.01;94587.91;4968286;28;20110;-74
2021/10/29 05:31:13;;;;;;;13.20;7.90;;;;;;;6.32;53.36;94586.81;4969444;28;20039;-74
2021/10/29 05:33:39;;;;;;;15.43;8.63;;;;;;;6.47;53.27;94607.94;4965667;28;20088;-74
2021/10/29 05:36:04;;;;;;;15.88;8.10;;;;;;;6.57;53.06;94607.91;4968594;28;20558;-74
2021/10/29 05:38:30;;;;;;;14.25;9.30;;;;;;;6.54;53.09;94602.38;4965298;28;20038;-73
2021/10/29 05:40:58;;;;;;;15.32;9.07;;;;;;;6.62;53.24;94615.84;4967210;28;20078;-75
2021/10/29 05:43:27;;;;;;;15.38;8.95;;;;;;;6.85;52.54;94603.84;4970494;28;20038;-76
2021/10/29 05:45:52;;;;;;;17.45;9.00;;;;;;;6.95;52.57;94617.03;4980837;28;20033;-74
2021/10/29 05:48:18;;;;;;;13.10;8.43;;;;;;;6.73;53.21;94611.31;4968175;28;20494;-74
2021/10/29 05:50:48;;;;;;;15.80;9.15;;;;;;;6.58;53.57;94608.72;4965474;28;20073;-74
2021/10/29 05:53:23;;;;;;;18.52;10.43;;;;;;;6.86;53.55;94627.41;4955802;28;20046;-74
2021/10/29 05:55:48;;;;;;;17.02;9.35;;;;;;;6.94;53.52;94609.41;4967643;28;20512;-74
2021/10/29 05:58:14;;;;;;;23.80;12.25;;;;;;;6.82;54.10;94604.41;4962025;28;20042;-75
2021/10/29 06:00:39;;;;;;;21.10;12.63;;;;;;;6.94;54.27;94625.25;4969728;28;20504;-74
2021/10/29 06:03:06;;;;;;;18.95;11.50;;;;;;;7.03;54.09;94623.63;4957518;28;20251;-74
2021/10/29 06:05:33;;;;;;;18.08;11.80;;;;;;;7.26;53.83;94617.72;4967643;28;20352;-74
2021/10/29 06:07:59;;;;;;;19.80;13.25;;;;;;;7.25;53.99;94634.66;4959660;28;20105;-75
2021/10/29 06:10:24;;;;;;;23.67;12.75;;;;;;;7.33;53.72;94620.88;4968173;28;20034;-74
2021/10/29 06:12:50;;;;;;;21.00;12.23;;;;;;;7.19;54.43;94625.16;4959559;28;20212;-75
2021/10/29 06:15:16;;;;;;;25.35;13.93;;;;;;;7.24;54.54;94630.41;4958941;28;20037;-74
2021/10/29 06:17:42;;;;;;;22.10;14.18;;;;;;;7.41;54.30;94628.22;4961743;28;20598;-74
2021/10/29 06:20:09;;;;;;;25.30;14.15;;;;;;;7.57;53.70;94632.38;4964119;28;20042;-75
2021/10/29 06:22:40;;;;;;;23.85;12.80;;;;;;;7.68;53.49;94627.78;4967870;28;20035;-74
2021/10/29 06:25:13;;;;;;;21.80;13.02;;;;;;;7.85;53.10;94625.59;4965433;28;20042;-75
2021/10/29 06:30:05;;;;;;;21.75;12.52;;;;;;;7.96;52.57;94610.44;4964573;28;20504;-74
2021/10/29 06:32:31;;;;;;;22.30;12.57;;;;;;;8.10;52.35;94624.63;4963003;28;20043;-75
2021/10/29 06:34:57;;;;;;;23.20;11.70;;;;;;;8.21;51.77;94642.03;4964574;28;20030;-74
2021/10/29 06:37:22;;;;;;;16.67;11.80;;;;;;;8.03;52.14;94603.72;4964247;28;20042;-74
2021/10/29 06:39:49;;;;;;;21.08;13.52;;;;;;;8.00;52.37;94614.09;4964567;28;21338;-75
2021/10/29 06:42:52;;;;;;;22.30;11.98;;;;;;;8.27;52.47;94634.78;4968520;28;20456;-74
2021/10/29 06:47:48;;;;;;;19.83;12.82;;;;;;;8.51;51.64;94630.34;4963941;28;20730;-74
2021/10/29 07:01:07;;;;;;;19.42;10.95;;;;;;;6.99;56.92;94614.66;4965408;28;20033;-74
2021/10/29 07:41:43;;;;;;;19.92;10.35;;;;;;;8.67;55.12;94628.31;4962019;28;20767;-75
2021/10/29 07:44:15;;;;;;;13.05;9.65;;;;;;;9.14;54.48;94617.75;4958118;28;20043;-76
2021/10/29 07:46:41;;;;;;;17.92;9.73;;;;;;;9.12;53.68;94625.22;4964996;28;20046;-75
2021/10/29 07:49:07;;;;;;;18.02;10.38;;;;;;;9.17;52.99;94603.13;4964142;28;20046;-74
2021/10/29 07:51:37;;;;;;;12.40;9.18;;;;;;;9.82;52.66;94623.50;4963240;28;20674;-74
2021/10/29 07:54:03;;;;;;;16.20;9.98;;;;;;;10.12;51.83;94608.16;4968073;28;20092;-75
2021/10/29 07:56:28;;;;;;;15.25;8.80;;;;;;;9.67;51.72;94617.59;4965519;28;20054;-76
2021/10/29 07:58:54;;;;;;;13.38;7.90;;;;;;;9.84;52.82;94618.66;4968460;28;20051;-76
2021/10/29 08:01:20;;;;;;;11.45;7.47;;;;;;;9.63;51.59;94590.03;4969577;28;20111;-75
2021/10/29 08:03:45;;;;;;;16.55;9.02;;;;;;;9.88;51.73;94597.59;4962223;28;20477;-76
2021/10/29 08:06:10;;;;;;;17.42;9.93;;;;;;;9.76;52.00;94591.97;4950453;28;20041;-75
2021/10/29 08:08:36;;;;;;;28.85;13.95;;;;;;;10.19;51.22;94596.06;4957574;28;20042;-76
2021/10/29 08:11:01;;;;;;;17.75;8.40;;;;;;;9.38;51.60;94589.31;4958352;28;20041;-75
2021/10/29 08:13:28;;;;;;;18.35;8.55;;;;;;;8.74;53.98;94591.66;4957641;28;20493;-75
2021/10/29 08:15:58;;;;;;;14.00;7.43;;;;;;;8.59;54.09;94592.63;4950572;28;20798;-75
2021/10/29 08:18:23;;;;;;;12.10;7.00;;;;;;;8.50;54.22;94592.44;4960588;28;20019;-74
2021/10/29 08:20:49;;;;;;;10.65;6.90;;;;;;;8.53;54.56;94591.88;4967653;28;20104;-74
2021/10/29 08:23:14;;;;;;;15.25;7.70;;;;;;;8.16;55.34;94578.47;4963968;28;20061;-75
2021/10/29 08:25:40;;;;;;;11.65;7.85;;;;;;;8.02;55.21;94564.28;4963851;28;20043;-74
2021/10/29 08:28:06;;;;;;;16.17;7.75;;;;;;;8.18;55.09;94578.16;4974527;28;20557;-75
2021/10/29 08:30:31;;;;;;;10.70;6.78;;;;;;;8.51;54.78;94583.41;4944672;28;20128;-75
2021/10/29 08:32:57;;;;;;;10.98;7.38;;;;;;;8.15;54.82;94555.69;4962364;28;20402;-75
2021/10/29 08:35:22;;;;;;;13.63;7.50;;;;;;;8.41;54.74;94556.22;4951534;28;20042;-76
2021/10/29 08:37:52;;;;;;;12.30;7.30;;;;;;;8.55;53.80;94579.16;4962806;28;20042;-75
2021/10/29 08:40:21;;;;;;;12.07;6.40;;;;;;;8.55;54.05;94563.22;4964474;28;20038;-76
2021/10/29 08:42:46;;;;;;;14.27;7.10;;;;;;;8.72;53.01;94560.13;4965845;28;20049;-75
2021/10/29 08:45:12;;;;;;;9.27;5.95;;;;;;;8.72;53.07;94569.94;4964999;28;20030;-75
2021/10/29 08:47:43;;;;;;;11.25;6.63;;;;;;;8.87;52.24;94572.41;4967777;28;20038;-74
2021/10/29 08:50:12;;;;;;;10.50;5.38;;;;;;;8.80;52.07;94566.66;4972582;28;20054;-75
2021/10/29 08:52:40;;;;;;;10.15;5.93;;;;;;;8.83;51.75;94574.06;4966524;28;20046;-75
2021/10/29 08:55:08;;;;;;;10.30;5.68;;;;;;;8.81;51.83;94539.06;4968771;28;20050;-76
2021/10/29 08:57:34;;;;;;;10.43;5.40;;;;;;;8.88;51.67;94571.34;4965879;28;20492;-75
2021/10/29 09:00:05;;;;;;;6.57;4.68;;;;;;;8.82;50.69;94564.50;4964179;28;20606;-75
2021/10/29 09:02:33;;;;;;;7.28;4.70;;;;;;;8.63;49.76;94542.47;4975754;28;20061;-76
2021/10/29 09:05:17;;;;;;;10.18;5.65;;;;;;;8.80;50.10;94548.09;4962513;28;20126;-74
2021/10/29 09:32:58;;;;;;;8.13;4.93;;;;;;;9.27;46.79;94550.69;4968968;28;20405;-74
2021/10/29 09:35:27;;;;;;;8.60;5.55;;;;;;;9.29;47.11;94548.53;4980218;28;20035;-74
2021/10/29 09:37:56;;;;;;;7.32;4.43;;;;;;;9.46;46.85;94550.69;4964657;28;20030;-75
2021/10/29 09:40:23;;;;;;;10.38;4.25;;;;;;;9.35;46.42;94534.13;4968819;28;20513;-75
2021/10/29 09:42:51;;;;;;;5.38;4.18;;;;;;;9.55;44.97;94548.97;4966213;28;20026;-75
2021/10/29 09:45:27;;;;;;;8.43;5.60;;;;;;;9.71;46.21;94546.88;4967249;28;20081;-74
2021/10/29 09:48:21;;;;;;;5.05;3.97;;;;;;;9.57;45.62;94551.34;4966540;28;20520;-75
2021/10/29 09:50:52;;;;;;;8.23;4.47;;;;;;;9.49;45.42;94541.38;4967983;28;20038;-75
2021/10/29 09:58:58;;;;;;;7.88;4.70;;;;;;;9.73;45.21;94539.41;4967072;28;20035;-74
2021/10/29 10:01:34;;;;;;;7.55;4.45;;;;;;;9.81;45.14;94541.41;4967376;28;20045;-74
2021/10/29 10:04:04;;;;;;;7.13;4.35;;;;;;;9.84;44.03;94530.97;4967104;28;20058;-74
2021/10/29 10:06:31;;;;;;;6.30;4.70;;;;;;;9.90;44.22;94531.69;4968140;28;20514;-74
2021/10/29 10:08:58;;;;;;;7.40;3.72;;;;;;;9.99;43.51;94532.59;4965027;28;20536;-75
2021/10/29 10:11:28;;;;;;;7.38;4.25;;;;;;;9.84;43.49;94504.41;4965471;28;20065;-75
2021/10/29 10:13:55;;;;;;;6.82;3.95;;;;;;;10.07;43.13;94529.28;4964629;28;20077;-74
2021/10/29 10:16:22;;;;;;;7.80;4.13;;;;;;;10.04;43.12;94524.53;4965976;28;20042;-76
2021/10/29 10:18:48;;;;;;;6.00;3.53;;;;;;;10.08;42.84;94520.22;4963937;28;20050;-75
2021/10/29 10:21:18;;;;;;;6.28;3.60;;;;;;;10.31;42.94;94523.81;4970905;28;20125;-75
2021/10/29 10:23:49;;;;;;;5.57;3.08;;;;;;;10.16;40.10;94500.94;4972132;28;20079;-76
2021/10/29 10:40:42;;;;;;;4.25;3.15;;;;;;;10.74;40.35;94505.72;4969340;28;20073;-75
2021/10/29 10:46:18;;;;;;;7.45;3.28;;;;;;;10.67;39.15;94490.16;4965796;28;20459;-75
2021/10/29 10:48:29;;;;;;;4.45;3.22;;;;;;;10.56;38.36;94466.75;4959473;28;20046;-75
2021/10/29 10:54:03;;;;;;;7.15;3.45;;;;;;;11.03;38.97;94490.22;4965664;28;20072;-74
2021/10/29 10:56:54;;;;;;;4.30;2.67;;;;;;;10.98;37.71;94468.25;4963508;28;20899;-74
2021/10/29 10:59:58;;;;;;;4.97;2.95;;;;;;;10.84;36.87;94476.25;4966631;28;20576;-74
2021/10/29 11:10:17;;;;;;;6.60;3.40;;;;;;;11.04;37.19;94462.53;4967747;28;20034;-75
2021/10/29 11:12:44;;;;;;;3.17;2.83;;;;;;;11.30;37.50;94476.03;4963097;28;20057;-76
2021/10/29 11:15:26;;;;;;;4.43;3.00;;;;;;;11.24;36.18;94468.47;4970344;28;20030;-75
2021/10/29 11:18:00;;;;;;;6.88;2.80;;;;;;;11.36;36.18;94474.03;4955852;28;20138;-75
2021/10/29 11:23:45;;;;;;;3.28;2.75;;;;;;;11.47;35.37;94462.88;4966103;28;20038;-75
2021/10/29 11:26:23;;;;;;;4.38;2.13;;;;;;;11.28;34.44;94429.50;4950111;28;20138;-74
2021/10/29 11:28:52;;;;;;;4.50;2.60;;;;;;;11.46;34.56;94436.53;4964986;28;20042;-73
2021/10/29 11:31:21;;;;;;;3.28;2.28;;;;;;;11.76;33.99;94449.13;4984025;28;20042;-74
2021/10/29 11:33:50;;;;;;;3.67;2.00;;;;;;;11.62;33.71;94429.78;4968149;28;20437;-74
2021/10/29 11:36:19;;;;;;;3.95;2.53;;;;;;;11.57;33.68;94448.53;4976221;28;20110;-74
2021/10/29 11:38:48;;;;;;;3.70;1.95;;;;;;;11.53;33.20;94443.03;4967661;28;20043;-74
2021/10/29 11:41:25;;;;;;;5.63;2.33;;;;;;;11.39;33.11;94422.84;4967356;28;20588;-74
2021/10/29 11:43:58;;;;;;;5.88;2.30;;;;;;;11.52;32.69;94436.13;4964722;28;20046;-74
2021/10/29 11:46:24;;;;;;;3.60;2.50;;;;;;;11.55;32.36;94429.41;4964528;28;20129;-75
2021/10/29 11:48:52;;;;;;;3.15;1.90;;;;;;;11.72;32.38;94434.84;4968272;28;20362;-73
2021/10/29 11:51:19;;;;;;;3.47;2.30;;;;;;;11.46;31.90;94409.88;4965325;28;20046;-74
2021/10/29 11:53:51;;;;;;;2.45;2.15;;;;;;;11.77;32.08;94421.41;4969751;28;20043;-74
2021/10/29 12:07:24;;;;;;;7.82;2.15;;;;;;;11.81;30.41;94416.25;4967939;28;20162;-74
2021/10/29 12:09:52;;;;;;;2.20;1.35;;;;;;;11.87;30.90;94417.69;4975106;28;20520;-74
2021/10/29 12:12:26;;;;;;;3.42;1.98;;;;;;;11.92;31.10;94399.69;4968711;28;20326;-74
2021/10/29 12:14:55;;;;;;;4.68;1.77;;;;;;;12.13;31.25;94417.78;4970208;28;20050;-75
2021/10/29 12:17:35;;;;;;;4.03;1.88;;;;;;;12.15;30.72;94415.63;4969258;28;20081;-74
2021/10/29 12:20:07;;;;;;;4.32;1.98;;;;;;;12.18;30.86;94414.97;4963222;28;20101;-75
2021/10/29 12:27:40;;;;;;;1.75;1.50;;;;;;;11.84;31.05;94408.41;4965343;28;20034;-74
2021/10/29 12:30:32;;;;;;;2.03;1.50;;;;;;;11.65;30.05;94362.53;4966774;28;20031;-74
2021/10/29 12:38:42;;;;;;;2.10;1.63;;;;;;;11.95;30.00;94393.72;4961169;28;20038;-74
2021/10/29 13:03:11;;;;;;;2.50;1.80;;;;;;;11.86;29.36;94390.25;4968591;28;20049;-75
2021/10/29 13:05:37;;;;;;;2.88;1.60;;;;;;;11.79;29.52;94397.09;4965236;28;20642;-75
2021/10/29 13:08:20;;;;;;;2.47;1.70;;;;;;;12.04;29.30;94405.22;4966030;28;20049;-75
2021/10/29 13:10:47;;;;;;;3.95;1.70;;;;;;;11.94;30.08;94410.03;4967196;28;20049;-75
2021/10/29 13:13:18;;;;;;;6.70;2.35;;;;;;;11.96;29.95;94395.31;4966253;28;20196;-75
2021/10/29 13:15:46;;;;;;;3.65;1.98;;;;;;;11.88;29.01;94398.72;4968406;28;20547;-74
2021/10/29 13:18:16;;;;;;;3.10;1.83;;;;;;;11.67;29.90;94362.25;4967063;28;20411;-74
2021/10/29 13:28:49;;;;;;;2.17;1.55;;;;;;;11.73;30.87;94382.34;4965308;28;20590;-76
2021/10/29 13:36:51;;;;;;;3.08;2.03;;;;;;;11.84;30.67;94405.75;4959781;28;20041;-76
2021/10/29 14:33:00;;;;;;;7.30;2.37;;;;;;;12.51;24.90;94376.19;4964882;28;20047;-75
2021/10/29 14:35:29;;;;;;;1.98;1.45;;;;;;;11.74;23.91;94352.72;4963181;28;20326;-75
2021/10/29 14:46:03;;;;;;;2.15;1.27;;;;;;;11.79;24.15;94367.78;4963119;28;20515;-75
2021/10/29 14:53:38;;;;;;;1.23;0.80;;;;;;;11.55;23.87;94368.13;4962440;28;20133;-74
2021/10/29 15:15:40;;;;;;;5.30;1.45;;;;;;;11.49;24.82;94393.31;4962998;28;20159;-77
2021/10/29 15:45:41;;;;;;;1.17;0.93;;;;;;;10.68;23.09;94384.53;4958226;28;20606;-75
2021/10/29 15:48:15;;;;;;;1.60;1.25;;;;;;;10.39;23.91;94397.38;4965398;28;20030;-75
2021/10/29 15:50:41;;;;;;;1.70;1.20;;;;;;;10.61;24.18;94398.22;4961888;28;20043;-74
2021/10/29 15:53:16;;;;;;;1.85;1.02;;;;;;;10.97;23.85;94387.59;4962012;28;20055;-75
2021/10/29 15:55:53;;;;;;;;;;;;;;;11.17;24.49;94403.13;4961692;28;20133;-76
2021/10/29 15:58:41;;;;;;;1.73;1.17;;;;;;;10.70;22.95;94377.06;4960749;28;21053;-75
2021/10/29 16:01:13;;;;;;;0.88;0.70;;;;;;;10.83;22.25;94354.94;4968696;28;20525;-76
2021/10/29 16:04:01;;;;;;;1.75;0.80;;;;;;;10.53;22.30;94376.88;4951501;28;20615;-75
2021/10/29 16:17:23;;;;;;;1.13;1.00;;;;;;;10.54;22.14;94383.78;4962116;28;20091;-75
2021/10/29 16:19:48;;;;;;;1.33;0.63;;;;;;;10.55;22.59;94396.78;4957374;28;20506;-75
2021/10/29 16:22:25;;;;;;;0.75;0.73;;;;;;;10.75;21.79;94395.56;4962540;28;20045;-75
2021/10/29 16:27:25;;;;;;;4.82;1.88;;;;;;;10.32;21.73;94419.03;4963297;28;20141;-75
2021/10/29 16:29:51;;;;;;;3.58;1.85;;;;;;;9.95;22.06;94422.66;4963359;28;20154;-74
2021/10/29 16:32:39;;;;;;;2.97;1.50;;;;;;;10.27;22.03;94427.09;4960994;28;20113;-75
2021/10/29 16:35:05;;;;;;;2.75;1.65;;;;;;;10.13;22.83;94373.94;4963380;28;20497;-75
2021/10/29 16:37:30;;;;;;;1.23;0.98;;;;;;;10.42;23.20;94400.22;4958745;28;20313;-75
2021/10/29 16:39:56;;;;;;;1.05;0.80;;;;;;;10.47;22.66;94423.28;4960239;28;20476;-75
2021/10/29 16:42:21;;;;;;;1.02;0.85;;;;;;;10.49;22.68;94400.63;4961875;28;20033;-76
2021/10/29 16:44:47;;;;;;;4.82;1.45;;;;;;;10.07;23.41;94398.28;4960645;28;20456;-75
2021/10/29 16:47:13;;;;;;;2.45;1.42;;;;;;;10.00;22.89;94414.59;4957976;28;20046;-75